Airfield :
LOGIN :

Register | Disclaimer

   EN    FR    IT 

 










Legend :    VFR   Marginal VFR   IFR   Intensive IFR   Very Intensive IFR
Visi :
Ceiling :
>= 8 km
>= 3000ft
5 to 8 km
1000 to 3000 ft
1500m to 5 km
500 to 1000 ft
800 to 1500m
200 to 500 ft
< 800m
< 200 ft
Symbols :   Thunderstorms  Fog  Heavy snow  Heavy precipitations  Wind > 20 kt
SIGMETs :     Misc.  Thunderstorms  Icing  Turbulence  Mountain Waves  Volcanic Ashes







- Airport Elevation : 17 ft
- IATA code : CPH


EKCH - København - Kastrup (Copenhagen)

CURRENT METAR :
  • 260120Z 07005KT 2500 BR NSC 09/08 Q1013 TEMPO 4000

EXPIRED METARs :
  • 260050Z 06006KT 2800 BR NSC 09/09 Q1013 TEMPO 4000
  • 260020Z 04007KT 2200 BR NSC 10/09 Q1013 TEMPO 4000
  • 252350Z 03006KT 2000 BR NSC 10/09 Q1013 TEMPO 4000
  • 252320Z 03004KT 2800 BR NSC 09/08 Q1013 TEMPO 4000
  • 252250Z 10003KT 2800 BR NSC 09/08 Q1013 TEMPO 4000

TAF TAF EKCH
Valid from the 26 at 00:00 until the 27 at 00:00 UTC


252257Z 2600/2624 08008KT 9999 FEW030
TEMPO 2600/2606 2500 BR
TEMPO 2617/2624 4000 SHRA BKN008 SCT040CB
BECMG 2617/2620 30010KT
No reported NOTAMs for that airfield.



MET'MAP, your aeronautical weather chart ! - Copyright ORBIFLY December 2007 - Disclaimer

ORBIFLY MET'MAP TEAM :

Programming & Development : Alexandra Zaïnal
Concept & Development : Baudouin d'Aumeries
Co-Development & Prog : Marc-Olivier Méhu
Technical & hardware support : Manuel Goepfert

Contact : metmap@orbifly.com




SOURCES & CREDITS :

   NOAA